sensor_id;sensor_type;location;lat;lon;timestamp;pressure;altitude;pressure_sealevel;temperature;humidity
44309;BME280;30022;55.846;37.340;2023-04-22T00:01:09;46477.97;;;-143.51;52.57
44309;BME280;30022;55.846;37.340;2023-04-22T00:03:34;46509.56;;;-143.51;52.93
44309;BME280;30022;55.846;37.340;2023-04-22T00:06:00;46511.56;;;-143.51;53.12
44309;BME280;30022;55.846;37.340;2023-04-22T00:08:25;46493.78;;;-143.51;53.38
44309;BME280;30022;55.846;37.340;2023-04-22T00:10:51;46509.56;;;-143.51;53.75
44309;BME280;30022;55.846;37.340;2023-04-22T00:13:17;46503.66;;;-143.51;53.92
44309;BME280;30022;55.846;37.340;2023-04-22T00:15:43;46481.94;;;-143.51;54.12
44309;BME280;30022;55.846;37.340;2023-04-22T00:18:08;46503.66;;;-143.51;54.22
44309;BME280;30022;55.846;37.340;2023-04-22T00:20:41;46499.72;;;-143.51;54.84
44309;BME280;30022;55.846;37.340;2023-04-22T00:23:10;46487.84;;;-143.51;54.84
44309;BME280;30022;55.846;37.340;2023-04-22T00:25:36;46509.56;;;-143.51;54.83
44309;BME280;30022;55.846;37.340;2023-04-22T00:28:01;46503.66;;;-143.51;55.38
44309;BME280;30022;55.846;37.340;2023-04-22T00:30:27;46519.44;;;-143.51;55.50
44309;BME280;30022;55.846;37.340;2023-04-22T00:32:53;46493.78;;;-143.51;54.82
44309;BME280;30022;55.846;37.340;2023-04-22T00:35:19;46515.50;;;-143.51;55.63
44309;BME280;30022;55.846;37.340;2023-04-22T00:37:44;46517.47;;;-143.51;55.21
44309;BME280;30022;55.846;37.340;2023-04-22T00:40:10;46519.44;;;-143.51;55.62
44309;BME280;30022;55.846;37.340;2023-04-22T00:42:36;46495.75;;;-143.51;55.23
44309;BME280;30022;55.846;37.340;2023-04-22T00:45:02;46515.50;;;-143.51;56.18
44309;BME280;30022;55.846;37.340;2023-04-22T00:47:28;46507.59;;;-143.51;56.77
44309;BME280;30022;55.846;37.340;2023-04-22T00:49:54;46503.66;;;-143.51;56.48
44309;BME280;30022;55.846;37.340;2023-04-22T00:52:20;46501.69;;;-143.51;56.76
44309;BME280;30022;55.846;37.340;2023-04-22T00:54:45;46507.59;;;-143.51;57.47
44309;BME280;30022;55.846;37.340;2023-04-22T00:57:12;46495.75;;;-143.51;58.12
44309;BME280;30022;55.846;37.340;2023-04-22T00:59:38;46468.09;;;-143.51;58.50
44309;BME280;30022;55.846;37.340;2023-04-22T01:02:03;46479.97;;;-143.51;58.66
44309;BME280;30022;55.846;37.340;2023-04-22T01:04:29;46487.84;;;-143.51;59.18
44309;BME280;30022;55.846;37.340;2023-04-22T01:06:55;46487.84;;;-143.51;59.23
44309;BME280;30022;55.846;37.340;2023-04-22T01:09:22;46501.69;;;-143.51;58.95
44309;BME280;30022;55.846;37.340;2023-04-22T01:11:47;46487.84;;;-143.51;59.70
44309;BME280;30022;55.846;37.340;2023-04-22T01:14:13;46511.56;;;-143.51;59.85
44309;BME280;30022;55.846;37.340;2023-04-22T01:16:39;46507.59;;;-143.51;60.38
44309;BME280;30022;55.846;37.340;2023-04-22T01:19:07;46495.75;;;-143.51;60.61
44309;BME280;30022;55.846;37.340;2023-04-22T01:21:33;46515.50;;;-143.51;60.95
44309;BME280;30022;55.846;37.340;2023-04-22T01:24:00;46497.72;;;-143.51;61.37
44309;BME280;30022;55.846;37.340;2023-04-22T01:26:25;46476.00;;;-143.51;61.72
44309;BME280;30022;55.846;37.340;2023-04-22T01:28:51;46489.84;;;-143.51;62.21
44309;BME280;30022;55.846;37.340;2023-04-22T01:31:17;46483.91;;;-143.51;62.13
44309;BME280;30022;55.846;37.340;2023-04-22T01:33:42;46495.75;;;-143.51;62.35
44309;BME280;30022;55.846;37.340;2023-04-22T01:36:09;46491.81;;;-143.51;62.89
44309;BME280;30022;55.846;37.340;2023-04-22T01:38:35;46499.72;;;-143.51;63.21
44309;BME280;30022;55.846;37.340;2023-04-22T01:41:02;46503.66;;;-143.51;64.13
44309;BME280;30022;55.846;37.340;2023-04-22T01:43:29;46503.66;;;-143.51;64.18
44309;BME280;30022;55.846;37.340;2023-04-22T01:45:55;46529.31;;;-143.51;64.16
44309;BME280;30022;55.846;37.340;2023-04-22T01:48:22;46491.81;;;-143.51;64.39
44309;BME280;30022;55.846;37.340;2023-04-22T01:50:48;46507.59;;;-143.51;65.38
44309;BME280;30022;55.846;37.340;2023-04-22T01:53:13;46497.72;;;-143.51;65.43
44309;BME280;30022;55.846;37.340;2023-04-22T01:55:39;46499.72;;;-143.51;66.06
44309;BME280;30022;55.846;37.340;2023-04-22T01:58:06;46531.31;;;-143.51;66.87
44309;BME280;30022;55.846;37.340;2023-04-22T02:00:31;46477.97;;;-143.51;66.97
44309;BME280;30022;55.846;37.340;2023-04-22T02:02:57;46515.50;;;-143.51;67.30
44309;BME280;30022;55.846;37.340;2023-04-22T02:05:23;46509.56;;;-143.51;67.60
44309;BME280;30022;55.846;37.340;2023-04-22T02:07:50;46511.56;;;-143.51;67.62
44309;BME280;30022;55.846;37.340;2023-04-22T02:10:16;46513.53;;;-143.51;67.81
44309;BME280;30022;55.846;37.340;2023-04-22T02:12:42;46503.66;;;-143.51;68.12
44309;BME280;30022;55.846;37.340;2023-04-22T02:15:08;46519.44;;;-143.51;68.45
44309;BME280;30022;55.846;37.340;2023-04-22T02:17:34;46505.63;;;-143.51;68.41
44309;BME280;30022;55.846;37.340;2023-04-22T02:20:00;46519.44;;;-143.51;68.25
44309;BME280;30022;55.846;37.340;2023-04-22T02:22:28;46515.50;;;-143.51;68.09
44309;BME280;30022;55.846;37.340;2023-04-22T02:24:54;46495.75;;;-143.51;68.35
44309;BME280;30022;55.846;37.340;2023-04-22T02:27:20;46507.59;;;-143.51;68.64
44309;BME280;30022;55.846;37.340;2023-04-22T02:29:46;46517.47;;;-143.51;68.64
44309;BME280;30022;55.846;37.340;2023-04-22T02:32:13;46491.81;;;-143.51;68.67
44309;BME280;30022;55.846;37.340;2023-04-22T02:34:41;46495.75;;;-143.51;68.70
44309;BME280;30022;55.846;37.340;2023-04-22T02:37:07;46507.59;;;-143.51;68.56
44309;BME280;30022;55.846;37.340;2023-04-22T02:39:32;46523.41;;;-143.51;68.92
44309;BME280;30022;55.846;37.340;2023-04-22T02:41:58;46511.56;;;-143.51;69.04
44309;BME280;30022;55.846;37.340;2023-04-22T02:44:24;46523.41;;;-143.51;69.31
44309;BME280;30022;55.846;37.340;2023-04-22T02:46:50;46527.34;;;-143.51;69.10
44309;BME280;30022;55.846;37.340;2023-04-22T02:49:16;46515.50;;;-143.51;69.54
44309;BME280;30022;55.846;37.340;2023-04-22T02:51:42;46515.50;;;-143.51;69.83
44309;BME280;30022;55.846;37.340;2023-04-22T02:54:08;46507.59;;;-143.51;69.58
44309;BME280;30022;55.846;37.340;2023-04-22T02:56:33;46515.50;;;-143.51;69.68
44309;BME280;30022;55.846;37.340;2023-04-22T02:58:59;46491.81;;;-143.51;69.92
44309;BME280;30022;55.846;37.340;2023-04-22T03:01:25;46491.81;;;-143.51;69.65
44309;BME280;30022;55.846;37.340;2023-04-22T03:03:52;46527.34;;;-143.51;70.28
44309;BME280;30022;55.846;37.340;2023-04-22T03:06:21;46511.56;;;-143.51;71.00
44309;BME280;30022;55.846;37.340;2023-04-22T03:08:47;46509.56;;;-143.51;70.66
44309;BME280;30022;55.846;37.340;2023-04-22T03:11:13;46503.66;;;-143.51;71.42
44309;BME280;30022;55.846;37.340;2023-04-22T03:13:40;46495.75;;;-143.51;71.23
44309;BME280;30022;55.846;37.340;2023-04-22T03:16:06;46505.63;;;-143.51;71.53
44309;BME280;30022;55.846;37.340;2023-04-22T03:18:32;46519.44;;;-143.51;71.68
44309;BME280;30022;55.846;37.340;2023-04-22T03:20:58;46505.63;;;-143.51;71.55
44309;BME280;30022;55.846;37.340;2023-04-22T03:23:25;46523.41;;;-143.51;71.74
44309;BME280;30022;55.846;37.340;2023-04-22T03:25:51;46511.56;;;-143.51;71.48
44309;BME280;30022;55.846;37.340;2023-04-22T03:28:17;46525.38;;;-143.51;71.63
44309;BME280;30022;55.846;37.340;2023-04-22T03:30:43;46527.34;;;-143.51;71.39
44309;BME280;30022;55.846;37.340;2023-04-22T03:33:09;46515.50;;;-143.51;71.38
44309;BME280;30022;55.846;37.340;2023-04-22T03:35:46;46545.13;;;-143.51;70.57
44309;BME280;30022;55.846;37.340;2023-04-22T03:38:11;46511.56;;;-143.51;70.92
44309;BME280;30022;55.846;37.340;2023-04-22T03:40:37;46529.31;;;-143.51;71.22
44309;BME280;30022;55.846;37.340;2023-04-22T03:43:11;46519.44;;;-143.51;71.25
44309;BME280;30022;55.846;37.340;2023-04-22T03:45:38;46525.38;;;-143.51;71.24
44309;BME280;30022;55.846;37.340;2023-04-22T03:48:14;46531.31;;;-143.51;70.75
44309;BME280;30022;55.846;37.340;2023-04-22T03:50:45;46519.44;;;-143.51;70.55
44309;BME280;30022;55.846;37.340;2023-04-22T03:53:11;46523.41;;;-143.51;70.59
44309;BME280;30022;55.846;37.340;2023-04-22T03:55:37;46523.41;;;-143.51;70.88
44309;BME280;30022;55.846;37.340;2023-04-22T03:58:02;46529.31;;;-143.51;69.98
44309;BME280;30022;55.846;37.340;2023-04-22T04:00:28;46531.31;;;-143.51;69.93
44309;BME280;30022;55.846;37.340;2023-04-22T04:03:05;46537.22;;;-143.51;69.77
44309;BME280;30022;55.846;37.340;2023-04-22T04:05:31;46507.59;;;-143.51;69.63
44309;BME280;30022;55.846;37.340;2023-04-22T04:07:56;46505.63;;;-143.51;69.33
44309;BME280;30022;55.846;37.340;2023-04-22T04:10:23;46523.41;;;-143.51;69.15
44309;BME280;30022;55.846;37.340;2023-04-22T04:12:51;46527.34;;;-143.51;69.30
44309;BME280;30022;55.846;37.340;2023-04-22T04:15:18;46501.69;;;-143.51;68.73
44309;BME280;30022;55.846;37.340;2023-04-22T04:17:46;46527.34;;;-143.51;68.08
44309;BME280;30022;55.846;37.340;2023-04-22T04:20:14;46521.44;;;-143.51;67.60
44309;BME280;30022;55.846;37.340;2023-04-22T04:22:40;46543.16;;;-143.51;68.02
44309;BME280;30022;55.846;37.340;2023-04-22T04:25:07;46517.47;;;-143.51;68.04
44309;BME280;30022;55.846;37.340;2023-04-22T04:27:40;46527.34;;;-143.51;67.53
44309;BME280;30022;55.846;37.340;2023-04-22T04:30:09;46535.25;;;-143.51;67.87
44309;BME280;30022;55.846;37.340;2023-04-22T04:32:39;46531.31;;;-143.51;67.82
44309;BME280;30022;55.846;37.340;2023-04-22T04:35:10;46556.97;;;-143.51;67.91
44309;BME280;30022;55.846;37.340;2023-04-22T04:37:43;46519.44;;;-143.51;67.29
44309;BME280;30022;55.846;37.340;2023-04-22T04:40:10;46543.16;;;-143.51;66.24
44309;BME280;30022;55.846;37.340;2023-04-22T04:42:48;46525.38;;;-143.51;66.01
44309;BME280;30022;55.846;37.340;2023-04-22T04:45:19;46535.25;;;-143.51;65.67
44309;BME280;30022;55.846;37.340;2023-04-22T04:47:50;46525.38;;;-143.51;65.69
44309;BME280;30022;55.846;37.340;2023-04-22T04:50:25;46531.31;;;-143.51;65.39
44309;BME280;30022;55.846;37.340;2023-04-22T04:52:56;46551.06;;;-143.51;65.04
44309;BME280;30022;55.846;37.340;2023-04-22T04:55:28;46531.31;;;-143.51;65.64
44309;BME280;30022;55.846;37.340;2023-04-22T04:57:55;46531.31;;;-143.51;64.89
44309;BME280;30022;55.846;37.340;2023-04-22T05:00:21;46562.91;;;-143.51;64.69
44309;BME280;30022;55.846;37.340;2023-04-22T05:02:47;46555.00;;;-143.51;64.54
44309;BME280;30022;55.846;37.340;2023-04-22T05:05:13;46535.25;;;-143.51;64.16
44309;BME280;30022;55.846;37.340;2023-04-22T05:07:41;46531.31;;;-143.51;64.25
44309;BME280;30022;55.846;37.340;2023-04-22T05:10:07;46541.19;;;-143.51;64.00
44309;BME280;30022;55.846;37.340;2023-04-22T05:12:38;46533.28;;;-143.51;63.71
44309;BME280;30022;55.846;37.340;2023-04-22T05:15:06;46535.25;;;-143.51;63.37
44309;BME280;30022;55.846;37.340;2023-04-22T05:17:32;46545.13;;;-143.51;63.14
44309;BME280;30022;55.846;37.340;2023-04-22T05:19:57;46541.19;;;-143.51;63.04
44309;BME280;30022;55.846;37.340;2023-04-22T05:22:23;46529.31;;;-143.51;62.75
44309;BME280;30022;55.846;37.340;2023-04-22T05:24:49;46551.06;;;-143.51;62.58
44309;BME280;30022;55.846;37.340;2023-04-22T05:27:14;46543.16;;;-143.51;62.49
44309;BME280;30022;55.846;37.340;2023-04-22T05:29:40;46547.09;;;-143.51;62.62
44309;BME280;30022;55.846;37.340;2023-04-22T05:32:06;46535.25;;;-143.51;62.57
44309;BME280;30022;55.846;37.340;2023-04-22T05:34:34;46551.06;;;-143.51;62.57
44309;BME280;30022;55.846;37.340;2023-04-22T05:37:03;46537.22;;;-143.51;62.36
44309;BME280;30022;55.846;37.340;2023-04-22T05:39:30;46549.06;;;-143.51;61.95
44309;BME280;30022;55.846;37.340;2023-04-22T05:41:58;46545.13;;;-143.51;62.07
44309;BME280;30022;55.846;37.340;2023-04-22T05:44:24;46551.06;;;-143.51;61.33
44309;BME280;30022;55.846;37.340;2023-04-22T05:46:50;46560.91;;;-143.51;60.88
44309;BME280;30022;55.846;37.340;2023-04-22T05:49:17;46560.91;;;-143.51;61.10
44309;BME280;30022;55.846;37.340;2023-04-22T05:52:00;46547.09;;;-143.51;60.80
44309;BME280;30022;55.846;37.340;2023-04-22T05:54:34;46580.66;;;-143.51;60.67
44309;BME280;30022;55.846;37.340;2023-04-22T05:57:01;46537.22;;;-143.51;60.32
44309;BME280;30022;55.846;37.340;2023-04-22T05:59:27;46566.84;;;-143.51;60.19
44309;BME280;30022;55.846;37.340;2023-04-22T06:01:53;46574.75;;;-143.51;59.83
44309;BME280;30022;55.846;37.340;2023-04-22T06:04:19;46566.84;;;-143.51;59.60
44309;BME280;30022;55.846;37.340;2023-04-22T06:06:45;46572.78;;;-143.51;59.46
44309;BME280;30022;55.846;37.340;2023-04-22T06:09:12;46541.19;;;-143.51;56.19
44309;BME280;30022;55.846;37.340;2023-04-22T06:11:40;46564.88;;;-143.51;55.76
44309;BME280;30022;55.846;37.340;2023-04-22T06:14:06;46572.78;;;-143.51;55.91
44309;BME280;30022;55.846;37.340;2023-04-22T06:16:32;46551.06;;;-143.51;56.51
44309;BME280;30022;55.846;37.340;2023-04-22T06:18:58;46570.78;;;-143.51;56.59
44309;BME280;30022;55.846;37.340;2023-04-22T06:21:24;46586.59;;;-143.51;56.12
44309;BME280;30022;55.846;37.340;2023-04-22T06:23:49;46608.31;;;-143.51;55.79
44309;BME280;30022;55.846;37.340;2023-04-22T06:26:15;46596.47;;;-143.51;54.37
44309;BME280;30022;55.846;37.340;2023-04-22T06:28:41;46533.28;;;-143.51;53.63
44309;BME280;30022;55.846;37.340;2023-04-22T06:31:13;46555.00;;;-143.51;53.33
44309;BME280;30022;55.846;37.340;2023-04-22T06:33:39;46566.84;;;-143.51;53.29
44309;BME280;30022;55.846;37.340;2023-04-22T06:36:04;46592.53;;;-143.51;52.75
44309;BME280;30022;55.846;37.340;2023-04-22T06:38:31;46570.78;;;-143.51;52.87
44309;BME280;30022;55.846;37.340;2023-04-22T06:41:16;46590.53;;;-143.51;52.22
44309;BME280;30022;55.846;37.340;2023-04-22T06:43:43;46547.09;;;-143.51;52.37
44309;BME280;30022;55.846;37.340;2023-04-22T06:46:42;46570.78;;;-143.51;51.96
44309;BME280;30022;55.846;37.340;2023-04-22T06:49:38;46555.00;;;-143.51;52.04
44309;BME280;30022;55.846;37.340;2023-04-22T06:52:04;46600.41;;;-143.51;51.40
44309;BME280;30022;55.846;37.340;2023-04-22T06:54:30;46568.81;;;-143.51;50.91
44309;BME280;30022;55.846;37.340;2023-04-22T06:56:56;46602.41;;;-143.51;50.98
44309;BME280;30022;55.846;37.340;2023-04-22T06:59:22;46572.78;;;-143.51;50.70
44309;BME280;30022;55.846;37.340;2023-04-22T07:01:48;46600.41;;;-143.51;50.74
44309;BME280;30022;55.846;37.340;2023-04-22T07:04:14;46622.16;;;-143.51;50.80
44309;BME280;30022;55.846;37.340;2023-04-22T07:06:39;46606.34;;;-143.51;49.05
44309;BME280;30022;55.846;37.340;2023-04-22T07:09:05;46562.91;;;-143.51;49.33
44309;BME280;30022;55.846;37.340;2023-04-22T07:11:31;46558.94;;;-143.51;49.49
44309;BME280;30022;55.846;37.340;2023-04-22T07:14:01;46574.75;;;-143.51;49.23
44309;BME280;30022;55.846;37.340;2023-04-22T07:16:27;46574.75;;;-143.51;48.71
44309;BME280;30022;55.846;37.340;2023-04-22T07:18:53;46564.88;;;-143.51;49.35
44309;BME280;30022;55.846;37.340;2023-04-22T07:21:19;46564.88;;;-143.51;48.42
44309;BME280;30022;55.846;37.340;2023-04-22T07:23:47;46580.66;;;-143.51;48.30
44309;BME280;30022;55.846;37.340;2023-04-22T07:26:13;46606.34;;;-143.51;48.67
44309;BME280;30022;55.846;37.340;2023-04-22T07:28:38;46578.69;;;-143.51;47.52
44309;BME280;30022;55.846;37.340;2023-04-22T07:31:04;46588.56;;;-143.51;47.42
44309;BME280;30022;55.846;37.340;2023-04-22T07:33:30;46592.53;;;-143.51;47.92
44309;BME280;30022;55.846;37.340;2023-04-22T07:35:55;46584.63;;;-143.51;47.25
44309;BME280;30022;55.846;37.340;2023-04-22T07:38:21;46590.53;;;-143.51;47.33
44309;BME280;30022;55.846;37.340;2023-04-22T07:40:47;46598.44;;;-143.51;48.31
44309;BME280;30022;55.846;37.340;2023-04-22T07:43:12;46568.81;;;-143.51;48.74
44309;BME280;30022;55.846;37.340;2023-04-22T07:45:38;46558.94;;;-143.51;49.29
44309;BME280;30022;55.846;37.340;2023-04-22T07:48:04;46574.75;;;-143.51;49.03
44309;BME280;30022;55.846;37.340;2023-04-22T07:50:29;46568.81;;;-143.51;49.26
44309;BME280;30022;55.846;37.340;2023-04-22T07:52:55;46562.91;;;-143.51;49.72
44309;BME280;30022;55.846;37.340;2023-04-22T07:55:20;46545.13;;;-143.51;49.81
44309;BME280;30022;55.846;37.340;2023-04-22T07:57:46;46562.91;;;-143.51;49.99
44309;BME280;30022;55.846;37.340;2023-04-22T08:00:12;46564.88;;;-143.51;49.90
44309;BME280;30022;55.846;37.340;2023-04-22T08:02:38;46588.56;;;-143.51;49.85
44309;BME280;30022;55.846;37.340;2023-04-22T08:05:05;46570.78;;;-143.51;49.13
44309;BME280;30022;55.846;37.340;2023-04-22T08:07:30;46598.44;;;-143.51;49.01
44309;BME280;30022;55.846;37.340;2023-04-22T08:09:56;46602.41;;;-143.51;47.90
44309;BME280;30022;55.846;37.340;2023-04-22T08:12:22;46598.44;;;-143.51;47.01
44309;BME280;30022;55.846;37.340;2023-04-22T08:14:47;46630.03;;;-143.51;46.57
44309;BME280;30022;55.846;37.340;2023-04-22T08:17:13;46606.34;;;-143.51;47.11
44309;BME280;30022;55.846;37.340;2023-04-22T08:19:39;46608.31;;;-143.51;45.82
44309;BME280;30022;55.846;37.340;2023-04-22T08:22:04;46624.13;;;-143.51;44.45
44309;BME280;30022;55.846;37.340;2023-04-22T08:24:31;46620.16;;;-143.51;45.40
44309;BME280;30022;55.846;37.340;2023-04-22T08:26:57;46647.81;;;-143.51;45.37
44309;BME280;30022;55.846;37.340;2023-04-22T08:29:22;46634.00;;;-143.51;43.81
44309;BME280;30022;55.846;37.340;2023-04-22T08:31:48;46616.22;;;-143.51;43.30
44309;BME280;30022;55.846;37.340;2023-04-22T08:34:13;46610.28;;;-143.51;43.17
44309;BME280;30022;55.846;37.340;2023-04-22T08:36:39;46610.28;;;-143.51;43.01
44309;BME280;30022;55.846;37.340;2023-04-22T08:39:05;46596.47;;;-143.51;42.79
44309;BME280;30022;55.846;37.340;2023-04-22T08:41:32;46647.81;;;-143.51;42.26
44309;BME280;30022;55.846;37.340;2023-04-22T08:43:57;46630.03;;;-143.51;41.32
44309;BME280;30022;55.846;37.340;2023-04-22T08:46:23;46661.63;;;-143.51;41.06
44309;BME280;30022;55.846;37.340;2023-04-22T08:48:52;46645.84;;;-143.51;40.63
44309;BME280;30022;55.846;37.340;2023-04-22T08:51:18;46671.50;;;-143.51;39.71
44309;BME280;30022;55.846;37.340;2023-04-22T08:53:44;46628.06;;;-143.51;39.32
44309;BME280;30022;55.846;37.340;2023-04-22T08:56:10;46673.50;;;-143.51;39.50
44309;BME280;30022;55.846;37.340;2023-04-22T08:58:37;46657.69;;;-143.51;39.11
44309;BME280;30022;55.846;37.340;2023-04-22T09:01:03;46671.50;;;-143.51;38.22
44309;BME280;30022;55.846;37.340;2023-04-22T09:03:29;46632.03;;;-143.51;38.88
44309;BME280;30022;55.846;37.340;2023-04-22T09:05:55;46649.78;;;-143.51;39.14
44309;BME280;30022;55.846;37.340;2023-04-22T09:08:21;46588.56;;;-143.51;39.84
44309;BME280;30022;55.846;37.340;2023-04-22T09:10:47;46564.88;;;-143.51;39.87
44309;BME280;30022;55.846;37.340;2023-04-22T09:13:13;46566.84;;;-143.51;39.84
44309;BME280;30022;55.846;37.340;2023-04-22T09:15:39;46578.69;;;-143.51;38.79
44309;BME280;30022;55.846;37.340;2023-04-22T09:18:07;46602.41;;;-143.51;39.92
44309;BME280;30022;55.846;37.340;2023-04-22T09:20:33;46594.50;;;-143.51;39.96
44309;BME280;30022;55.846;37.340;2023-04-22T09:23:01;46598.44;;;-143.51;39.67
44309;BME280;30022;55.846;37.340;2023-04-22T09:25:27;46596.47;;;-143.51;39.42
44309;BME280;30022;55.846;37.340;2023-04-22T09:27:54;46610.28;;;-143.51;40.00
44309;BME280;30022;55.846;37.340;2023-04-22T09:32:52;46562.91;;;-143.51;41.36
44309;BME280;30022;55.846;37.340;2023-04-22T09:35:26;46594.50;;;-143.51;41.86
44309;BME280;30022;55.846;37.340;2023-04-22T09:37:52;46586.59;;;-143.51;41.84
44309;BME280;30022;55.846;37.340;2023-04-22T09:40:18;46580.66;;;-143.51;41.87
44309;BME280;30022;55.846;37.340;2023-04-22T09:42:48;46558.94;;;-143.51;41.93
44309;BME280;30022;55.846;37.340;2023-04-22T09:45:25;46598.44;;;-143.51;41.96
44309;BME280;30022;55.846;37.340;2023-04-22T09:47:52;46600.41;;;-143.51;41.64
44309;BME280;30022;55.846;37.340;2023-04-22T09:50:20;46612.28;;;-143.51;41.27
44309;BME280;30022;55.846;37.340;2023-04-22T09:52:53;46600.41;;;-143.51;40.47
44309;BME280;30022;55.846;37.340;2023-04-22T09:55:20;46643.88;;;-143.51;40.59
44309;BME280;30022;55.846;37.340;2023-04-22T09:57:46;46645.84;;;-143.51;39.31
44309;BME280;30022;55.846;37.340;2023-04-22T10:00:15;46630.03;;;-143.51;38.84
44309;BME280;30022;55.846;37.340;2023-04-22T10:02:41;46630.03;;;-143.51;38.56
44309;BME280;30022;55.846;37.340;2023-04-22T10:05:07;46667.56;;;-143.51;38.90
44309;BME280;30022;55.846;37.340;2023-04-22T10:07:34;46628.06;;;-143.51;37.91
44309;BME280;30022;55.846;37.340;2023-04-22T10:10:00;46614.25;;;-143.51;37.46
44309;BME280;30022;55.846;37.340;2023-04-22T10:12:26;46618.19;;;-143.51;38.34
44309;BME280;30022;55.846;37.340;2023-04-22T10:14:51;46634.00;;;-143.51;38.31
44309;BME280;30022;55.846;37.340;2023-04-22T10:17:17;46620.16;;;-143.51;38.25
44309;BME280;30022;55.846;37.340;2023-04-22T10:19:45;46612.28;;;-143.51;38.36
44309;BME280;30022;55.846;37.340;2023-04-22T10:22:12;46608.31;;;-143.51;38.30
44309;BME280;30022;55.846;37.340;2023-04-22T10:24:38;46606.34;;;-143.51;37.99
44309;BME280;30022;55.846;37.340;2023-04-22T10:27:04;46600.41;;;-143.51;37.89
44309;BME280;30022;55.846;37.340;2023-04-22T10:29:34;46588.56;;;-143.51;37.17
44309;BME280;30022;55.846;37.340;2023-04-22T10:34:30;46634.00;;;-143.51;35.29
44309;BME280;30022;55.846;37.340;2023-04-22T10:37:05;46641.88;;;-143.51;35.13
44309;BME280;30022;55.846;37.340;2023-04-22T10:39:31;46643.88;;;-143.51;34.79
44309;BME280;30022;55.846;37.340;2023-04-22T10:50:08;46626.09;;;-143.51;35.72
44309;BME280;30022;55.846;37.340;2023-04-22T10:52:33;46643.88;;;-143.51;35.80
44309;BME280;30022;55.846;37.340;2023-04-22T10:55:00;46643.88;;;-143.51;35.80
44309;BME280;30022;55.846;37.340;2023-04-22T10:57:34;46634.00;;;-143.51;35.63
44309;BME280;30022;55.846;37.340;2023-04-22T11:02:43;46649.78;;;-143.51;36.63
44309;BME280;30022;55.846;37.340;2023-04-22T11:07:44;46657.69;;;-143.51;36.38
44309;BME280;30022;55.846;37.340;2023-04-22T11:10:11;46649.78;;;-143.51;36.75
44309;BME280;30022;55.846;37.340;2023-04-22T11:12:54;46655.72;;;-143.51;36.22
44309;BME280;30022;55.846;37.340;2023-04-22T11:15:19;46657.69;;;-143.51;36.07
44309;BME280;30022;55.846;37.340;2023-04-22T11:17:50;46669.53;;;-143.51;34.45
44309;BME280;30022;55.846;37.340;2023-04-22T11:20:16;46667.56;;;-143.51;34.78
44309;BME280;30022;55.846;37.340;2023-04-22T11:22:44;46645.84;;;-143.51;34.99
44309;BME280;30022;55.846;37.340;2023-04-22T11:25:10;46614.25;;;-143.51;34.64
44309;BME280;30022;55.846;37.340;2023-04-22T11:27:36;46659.66;;;-143.51;34.27
44309;BME280;30022;55.846;37.340;2023-04-22T11:30:11;46628.06;;;-143.51;34.11
44309;BME280;30022;55.846;37.340;2023-04-22T11:32:38;46645.84;;;-143.51;34.26
44309;BME280;30022;55.846;37.340;2023-04-22T11:35:08;46645.84;;;-143.51;34.08
44309;BME280;30022;55.846;37.340;2023-04-22T11:37:44;46677.44;;;-143.51;34.17
44309;BME280;30022;55.846;37.340;2023-04-22T11:40:11;46667.56;;;-143.51;34.58
44309;BME280;30022;55.846;37.340;2023-04-22T11:42:37;46701.13;;;-143.51;34.42
44309;BME280;30022;55.846;37.340;2023-04-22T11:45:03;46661.63;;;-143.51;34.84
44309;BME280;30022;55.846;37.340;2023-04-22T11:47:30;46643.88;;;-143.51;35.44
44309;BME280;30022;55.846;37.340;2023-04-22T11:52:24;46606.34;;;-143.51;36.26
44309;BME280;30022;55.846;37.340;2023-04-22T11:54:50;46641.88;;;-143.51;36.59
44309;BME280;30022;55.846;37.340;2023-04-22T11:57:16;46634.00;;;-143.51;36.42
44309;BME280;30022;55.846;37.340;2023-04-22T11:59:42;46624.13;;;-143.51;36.48
44309;BME280;30022;55.846;37.340;2023-04-22T12:02:08;46651.75;;;-143.51;36.20
44309;BME280;30022;55.846;37.340;2023-04-22T12:04:35;46634.00;;;-143.51;35.76
44309;BME280;30022;55.846;37.340;2023-04-22T12:07:00;46643.88;;;-143.51;35.53
44309;BME280;30022;55.846;37.340;2023-04-22T12:09:27;46675.47;;;-143.51;35.35
44309;BME280;30022;55.846;37.340;2023-04-22T12:11:53;46681.38;;;-143.51;35.16
44309;BME280;30022;55.846;37.340;2023-04-22T12:14:19;46716.94;;;-143.51;34.94
44309;BME280;30022;55.846;37.340;2023-04-22T12:16:45;46703.13;;;-143.51;34.74
44309;BME280;30022;55.846;37.340;2023-04-22T12:19:10;46709.03;;;-143.51;33.58
44309;BME280;30022;55.846;37.340;2023-04-22T12:21:36;46671.50;;;-143.51;33.83
44309;BME280;30022;55.846;37.340;2023-04-22T12:24:02;46661.63;;;-143.51;34.39
44309;BME280;30022;55.846;37.340;2023-04-22T12:26:32;46647.81;;;-143.51;34.95
44309;BME280;30022;55.846;37.340;2023-04-22T12:28:58;46618.19;;;-143.51;35.21
44309;BME280;30022;55.846;37.340;2023-04-22T12:31:24;46624.13;;;-143.51;35.34
44309;BME280;30022;55.846;37.340;2023-04-22T12:33:49;46632.03;;;-143.51;35.27
44309;BME280;30022;55.846;37.340;2023-04-22T12:36:15;46622.16;;;-143.51;35.38
44309;BME280;30022;55.846;37.340;2023-04-22T12:38:41;46645.84;;;-143.51;35.41
44309;BME280;30022;55.846;37.340;2023-04-22T12:41:07;46626.09;;;-143.51;35.40
44309;BME280;30022;55.846;37.340;2023-04-22T12:43:33;46665.59;;;-143.51;35.27
44309;BME280;30022;55.846;37.340;2023-04-22T12:46:04;46665.59;;;-143.51;34.69
44309;BME280;30022;55.846;37.340;2023-04-22T12:48:30;46641.88;;;-143.51;34.08
44309;BME280;30022;55.846;37.340;2023-04-22T12:50:56;46661.63;;;-143.51;34.22